createdAt,value
2018-02-10T00:00:24.027Z,91.58
2018-02-10T00:01:24.007Z,91.39
2018-02-10T00:02:23.990Z,91.20
2018-02-10T00:03:23.947Z,91.11
2018-02-10T00:04:23.920Z,91.20
2018-02-10T00:06:23.859Z,91.30
2018-02-10T00:07:23.848Z,90.83
2018-02-10T00:08:23.858Z,90.73
2018-02-10T00:09:23.780Z,90.17
2018-02-10T00:10:23.749Z,90.83
2018-02-10T00:11:23.725Z,91.11
2018-02-10T00:12:23.693Z,91.39
2018-02-10T00:13:23.663Z,91.67
2018-02-10T00:14:23.641Z,91.77
2018-02-10T00:15:23.659Z,91.58
2018-02-10T00:16:23.578Z,91.39
2018-02-10T00:18:23.575Z,90.73
2018-02-10T00:19:23.497Z,90.45
2018-02-10T00:20:23.471Z,90.64
2018-02-10T00:21:23.437Z,90.64
2018-02-10T00:22:23.420Z,91.30
2018-02-10T00:23:23.390Z,91.20
2018-02-10T00:24:23.353Z,90.64
2018-02-10T00:25:23.327Z,91.20
2018-02-10T00:26:23.299Z,91.11
2018-02-10T00:27:23.278Z,91.20
2018-02-10T00:28:23.301Z,91.30
2018-02-10T00:29:23.218Z,91.20
2018-02-10T00:30:23.183Z,91.39
2018-02-10T00:31:23.157Z,91.67
2018-02-10T00:32:23.192Z,91.49
2018-02-10T00:33:23.098Z,91.39
2018-02-10T00:35:23.044Z,91.20
2018-02-10T00:36:23.017Z,91.30
2018-02-10T00:37:22.988Z,91.11
2018-02-10T00:38:22.968Z,91.58
2018-02-10T00:39:22.929Z,91.11
2018-02-10T00:40:22.900Z,91.11
2018-02-10T00:41:22.872Z,91.39
2018-02-10T00:42:22.842Z,91.96
2018-02-10T00:43:22.820Z,91.86
2018-02-10T00:45:23.106Z,91.20
2018-02-10T00:46:22.744Z,91.39
2018-02-10T00:47:22.706Z,92.33
2018-02-10T00:48:22.674Z,91.96
2018-02-10T00:49:22.645Z,92.14
2018-02-10T00:50:22.620Z,91.39
2018-02-10T00:51:22.601Z,91.39
2018-02-10T00:52:22.578Z,91.30
2018-02-10T00:53:22.795Z,90.55
2018-02-10T00:54:22.506Z,91.02
2018-02-10T00:55:22.474Z,90.41
2018-02-10T00:56:22.699Z,90.17
2018-02-10T00:57:22.694Z,90.73
2018-02-10T00:58:22.639Z,90.41
2018-02-10T00:59:22.573Z,90.59
2018-02-10T01:00:22.535Z,90.78
2018-02-10T01:01:22.538Z,90.69
2018-02-10T01:02:22.523Z,90.78
2018-02-10T01:03:24.932Z,90.78
2018-02-10T01:04:24.590Z,91.16
2018-02-10T01:05:24.336Z,91.82
2018-02-10T01:06:24.853Z,91.35
2018-02-10T01:07:22.357Z,92.00
2018-02-10T01:08:22.383Z,92.05
2018-02-10T01:09:22.417Z,91.91
2018-02-10T01:10:22.276Z,91.63
2018-02-10T01:11:22.373Z,91.06
2018-02-10T01:12:22.239Z,91.16
2018-02-10T01:13:22.262Z,90.78
2018-02-10T01:14:22.582Z,90.69
2018-02-10T01:15:22.199Z,90.69
2018-02-10T01:16:21.871Z,91.25
2018-02-10T01:17:21.840Z,91.53
2018-02-10T01:18:21.812Z,91.91
2018-02-10T01:19:21.787Z,91.91
2018-02-10T01:20:21.758Z,91.72
2018-02-10T01:21:21.726Z,91.63
2018-02-10T01:22:21.698Z,91.16
2018-02-10T01:23:21.674Z,91.44
2018-02-10T01:24:21.647Z,91.63
2018-02-10T01:25:21.611Z,91.44
2018-02-10T01:26:21.583Z,92.00
2018-02-10T01:27:21.561Z,91.25
2018-02-10T01:28:21.531Z,91.44
2018-02-10T01:29:21.502Z,91.91
2018-02-10T01:30:21.474Z,91.82
2018-02-10T01:31:21.442Z,92.57
2018-02-10T01:32:21.413Z,92.29
2018-02-10T01:33:21.385Z,92.38
2018-02-10T01:34:21.353Z,92.47
2018-02-10T01:35:21.327Z,92.47
2018-02-10T01:36:21.301Z,92.57
2018-02-10T01:37:21.271Z,92.47
2018-02-10T01:38:21.243Z,92.38
2018-02-10T01:39:21.209Z,92.57
2018-02-10T01:40:21.181Z,92.00
2018-02-10T01:41:21.159Z,91.91
2018-02-10T01:42:21.127Z,92.57
2018-02-10T01:43:21.094Z,92.29
2018-02-10T01:44:21.067Z,92.47
2018-02-10T01:45:21.240Z,92.66
2018-02-10T01:46:21.009Z,92.47
2018-02-10T01:47:20.987Z,91.91
2018-02-10T01:48:20.948Z,92.47
2018-02-10T01:50:21.194Z,92.19
2018-02-10T01:51:20.862Z,92.47
2018-02-10T01:52:20.839Z,92.38
2018-02-10T01:53:20.810Z,91.82
2018-02-10T01:54:20.830Z,91.25
2018-02-10T01:55:20.749Z,91.16
2018-02-10T01:56:20.719Z,90.59
2018-02-10T01:57:20.693Z,90.59
2018-02-10T01:58:20.663Z,90.41
2018-02-10T01:59:20.641Z,90.41
2018-02-10T02:00:20.609Z,90.78
2018-02-10T02:01:20.584Z,91.06
2018-02-10T02:02:20.545Z,91.72
2018-02-10T02:03:20.519Z,91.25
2018-02-10T02:04:20.548Z,91.82
2018-02-10T02:05:20.526Z,91.91
2018-02-10T02:06:20.447Z,91.72
2018-02-10T02:07:20.401Z,92.29
2018-02-10T02:08:20.369Z,92.29
2018-02-10T02:09:20.342Z,91.91
2018-02-10T02:10:20.368Z,91.91
2018-02-10T02:11:20.282Z,91.82
2018-02-10T02:12:20.259Z,91.72
2018-02-10T02:13:20.227Z,92.19
2018-02-10T02:14:20.195Z,92.29
2018-02-10T02:15:20.171Z,91.91
2018-02-10T02:16:20.199Z,91.72
2018-02-10T02:17:20.108Z,91.25
2018-02-10T02:18:20.083Z,91.25
2018-02-10T02:19:20.074Z,91.91
2018-02-10T02:20:20.023Z,91.35
2018-02-10T02:21:19.995Z,92.10
2018-02-10T02:22:19.968Z,91.91
2018-02-10T02:23:19.933Z,92.10
2018-02-10T02:24:19.906Z,92.10
2018-02-10T02:25:19.931Z,92.00
2018-02-10T02:26:19.855Z,91.82
2018-02-10T02:27:19.817Z,91.91
2018-02-10T02:28:19.788Z,92.19
2018-02-10T02:29:19.763Z,91.16
2018-02-10T02:30:19.729Z,90.78
2018-02-10T02:31:19.700Z,91.25
2018-02-10T02:32:19.672Z,91.35
2018-02-10T02:33:19.643Z,91.53
2018-02-10T02:34:19.618Z,91.16
2018-02-10T02:35:19.586Z,91.06
2018-02-10T02:36:19.560Z,90.88
2018-02-10T02:37:19.576Z,90.31
2018-02-10T02:38:19.501Z,90.59
2018-02-10T02:39:19.475Z,90.78
2018-02-10T02:40:19.439Z,91.53
2018-02-10T02:41:19.408Z,91.91
2018-02-10T02:42:19.379Z,91.72
2018-02-10T02:43:19.353Z,91.53
2018-02-10T02:44:19.321Z,91.72
2018-02-10T02:45:19.308Z,91.72
2018-02-10T02:46:19.269Z,92.10
2018-02-10T02:47:19.238Z,91.16
2018-02-10T02:48:19.206Z,90.78
2018-02-10T02:49:19.175Z,90.69
2018-02-10T02:50:19.146Z,91.16
2018-02-10T02:51:19.122Z,91.16
2018-02-10T02:52:19.086Z,90.97
2018-02-10T02:53:19.064Z,91.25
2018-02-10T02:54:19.030Z,91.16
2018-02-10T02:55:19.011Z,92.10
2018-02-10T02:56:18.973Z,91.91
2018-02-10T02:57:18.939Z,91.53
2018-02-10T02:58:18.912Z,91.72
2018-02-10T02:59:18.893Z,91.82
2018-02-10T03:00:18.856Z,91.35
2018-02-10T03:01:18.831Z,91.25
2018-02-10T03:02:18.800Z,91.16
2018-02-10T03:03:18.823Z,91.35
2018-02-10T03:04:18.742Z,92.10
2018-02-10T03:05:18.710Z,91.72
2018-02-10T03:06:18.681Z,91.91
2018-02-10T03:07:18.647Z,91.44
2018-02-10T03:08:18.618Z,92.47
2018-02-10T03:09:18.595Z,92.29
2018-02-10T03:10:18.558Z,92.19
2018-02-10T03:11:18.532Z,92.29
2018-02-10T03:12:18.501Z,92.10
2018-02-10T03:13:18.476Z,92.47
2018-02-10T03:14:18.441Z,92.47
2018-02-10T03:15:18.418Z,92.29
2018-02-10T03:16:18.381Z,92.38
2018-02-10T03:17:18.352Z,92.57
2018-02-10T03:18:18.330Z,92.10
2018-02-10T03:19:18.306Z,92.00
2018-02-10T03:20:18.268Z,92.10
2018-02-10T03:21:18.240Z,91.72
2018-02-10T03:22:18.208Z,91.72
2018-02-10T03:23:18.186Z,91.72
2018-02-10T03:24:18.152Z,91.44
2018-02-10T03:25:18.116Z,91.25
2018-02-10T03:26:18.088Z,92.10
2018-02-10T03:27:18.060Z,91.72
2018-02-10T03:28:18.031Z,91.72
2018-02-10T03:29:18.001Z,91.82
2018-02-10T03:30:17.978Z,92.10
2018-02-10T03:31:17.942Z,92.10
2018-02-10T03:32:17.914Z,92.10
2018-02-10T03:33:17.882Z,92.47
2018-02-10T03:34:17.852Z,92.19
2018-02-10T03:35:17.826Z,91.91
2018-02-10T03:36:17.795Z,92.10
2018-02-10T03:37:17.766Z,92.19
2018-02-10T03:38:17.743Z,92.57
2018-02-10T03:39:17.763Z,92.38
2018-02-10T03:40:17.708Z,92.85
2018-02-10T03:41:17.647Z,92.85
2018-02-10T03:42:17.618Z,93.23
2018-02-10T03:43:17.587Z,93.51
2018-02-10T03:44:17.559Z,93.04
2018-02-10T03:45:17.529Z,92.85
2018-02-10T03:47:17.471Z,92.85
2018-02-10T03:48:17.435Z,93.04
2018-02-10T03:49:17.411Z,93.23
2018-02-10T03:50:17.378Z,93.42
2018-02-10T03:51:17.351Z,93.42
2018-02-10T03:52:17.326Z,93.32
2018-02-10T03:53:17.318Z,93.23
2018-02-10T03:54:17.257Z,93.23
2018-02-10T03:55:17.235Z,93.51
2018-02-10T03:56:17.198Z,93.23
2018-02-10T03:57:17.168Z,92.85
2018-02-10T03:58:17.155Z,93.13
2018-02-10T03:59:17.111Z,92.76
2018-02-10T04:00:17.083Z,92.47
2018-02-10T04:01:17.063Z,92.19
2018-02-10T04:02:17.020Z,92.19
2018-02-10T04:03:16.997Z,92.19
2018-02-10T04:04:16.961Z,91.91
2018-02-10T04:05:16.938Z,92.47
2018-02-10T04:06:16.900Z,92.29
2018-02-10T04:07:16.872Z,92.19
2018-02-10T04:08:16.865Z,91.82
2018-02-10T04:09:16.819Z,91.53
2018-02-10T04:10:16.783Z,91.35
2018-02-10T04:11:16.752Z,91.25
2018-02-10T04:12:16.729Z,91.35
2018-02-10T04:13:16.750Z,91.53
2018-02-10T04:14:16.673Z,92.00
2018-02-10T04:15:16.669Z,92.00
2018-02-10T04:16:16.613Z,91.35
2018-02-10T04:17:16.581Z,91.35
2018-02-10T04:18:16.550Z,91.06
2018-02-10T04:19:16.522Z,90.97
2018-02-10T04:20:16.486Z,91.44
2018-02-10T04:21:16.466Z,90.59
2018-02-10T04:22:16.430Z,90.78
2018-02-10T04:23:16.411Z,91.16
2018-02-10T04:24:16.365Z,91.35
2018-02-10T04:25:16.348Z,91.44
2018-02-10T04:27:16.280Z,90.97
2018-02-10T04:28:16.311Z,90.97
2018-02-10T04:29:16.219Z,91.72
2018-02-10T04:30:16.187Z,91.91
2018-02-10T04:32:16.429Z,91.16
2018-02-10T04:33:16.101Z,91.16
2018-02-10T04:34:16.068Z,91.16
2018-02-10T04:35:16.048Z,92.19
2018-02-10T04:36:16.017Z,91.82
2018-02-10T04:37:15.979Z,91.91
2018-02-10T04:38:15.961Z,91.44
2018-02-10T04:39:15.920Z,92.10
2018-02-10T04:40:15.889Z,92.29
2018-02-10T04:41:15.860Z,92.19
2018-02-10T04:42:15.837Z,92.38
2018-02-10T04:43:15.803Z,92.29
2018-02-10T04:44:15.824Z,91.72
2018-02-10T04:45:15.743Z,91.53
2018-02-10T04:46:15.716Z,91.72
2018-02-10T04:47:15.684Z,92.19
2018-02-10T04:48:15.651Z,92.10
2018-02-10T04:49:15.672Z,92.19
2018-02-10T04:50:15.594Z,91.91
2018-02-10T04:51:15.568Z,90.97
2018-02-10T04:52:15.531Z,90.78
2018-02-10T04:53:15.503Z,90.78
2018-02-10T04:54:15.473Z,91.16
2018-02-10T04:55:15.498Z,91.35
2018-02-10T04:56:15.416Z,92.10
2018-02-10T04:57:15.384Z,92.47
2018-02-10T04:58:15.359Z,92.47
2018-02-10T04:59:15.329Z,92.29
2018-02-10T05:00:15.343Z,92.47
2018-02-10T05:01:15.271Z,92.76
2018-02-10T05:02:15.243Z,92.47
2018-02-10T05:04:15.186Z,92.29
2018-02-10T05:05:15.165Z,92.38
2018-02-10T05:06:15.120Z,92.29
2018-02-10T05:07:15.088Z,92.47
2018-02-10T05:08:15.060Z,92.29
2018-02-10T05:09:15.028Z,92.38
2018-02-10T05:10:14.999Z,91.72
2018-02-10T05:11:14.967Z,92.19
2018-02-10T05:12:14.949Z,91.35
2018-02-10T05:13:14.910Z,91.44
2018-02-10T05:14:14.878Z,91.25
2018-02-10T05:15:14.848Z,90.41
2018-02-10T05:16:14.821Z,90.50
2018-02-10T05:17:14.789Z,90.22
2018-02-10T05:18:14.761Z,90.69
2018-02-10T05:19:14.730Z,91.06
2018-02-10T05:20:14.697Z,91.35
2018-02-10T05:21:14.725Z,91.53
2018-02-10T05:22:14.638Z,92.95
2018-02-10T05:23:14.609Z,93.23
2018-02-10T05:24:14.578Z,92.76
2018-02-10T05:25:14.650Z,92.29
2018-02-10T05:26:14.521Z,92.66
2018-02-10T05:27:14.490Z,92.47
2018-02-10T05:28:14.459Z,92.10
2018-02-10T05:29:14.429Z,92.29
2018-02-10T05:30:14.403Z,92.29
2018-02-10T05:31:14.375Z,92.19
2018-02-10T05:32:14.339Z,92.29
2018-02-10T05:33:14.308Z,92.19
2018-02-10T05:34:14.280Z,91.91
2018-02-10T05:35:14.252Z,92.29
2018-02-10T05:36:14.227Z,91.53
2018-02-10T05:37:14.236Z,91.72
2018-02-10T05:38:14.468Z,92.19
2018-02-10T05:39:14.130Z,91.44
2018-02-10T05:40:14.103Z,91.39
2018-02-10T05:41:14.072Z,90.78
2018-02-10T05:42:14.042Z,91.35
2018-02-10T05:43:14.020Z,91.16
2018-02-10T05:44:13.987Z,91.53
2018-02-10T05:45:13.960Z,91.53
2018-02-10T05:46:13.973Z,91.44
2018-02-10T05:47:13.892Z,91.35
2018-02-10T05:48:13.881Z,90.92
2018-02-10T05:49:13.852Z,91.20
2018-02-10T05:50:13.813Z,90.73
2018-02-10T05:51:13.802Z,90.64
2018-02-10T05:52:13.741Z,90.73
2018-02-10T05:53:13.719Z,90.92
2018-02-10T05:54:13.681Z,90.92
2018-02-10T05:55:13.653Z,91.39
2018-02-10T05:56:13.621Z,91.20
2018-02-10T05:57:13.601Z,91.20
2018-02-10T05:58:13.560Z,91.20
2018-02-10T05:59:13.532Z,91.49
2018-02-10T06:00:13.511Z,91.30
2018-02-10T06:01:13.470Z,91.86
2018-02-10T06:02:13.450Z,92.05
2018-02-10T06:03:13.418Z,91.67
2018-02-10T06:04:13.379Z,91.96
2018-02-10T06:05:13.350Z,91.20
2018-02-10T06:06:13.321Z,90.83
2018-02-10T06:07:13.290Z,91.58
2018-02-10T06:08:13.258Z,91.02
2018-02-10T06:09:13.245Z,91.11
2018-02-10T06:10:13.203Z,90.92
2018-02-10T06:11:13.174Z,90.92
2018-02-10T06:12:13.139Z,90.73
2018-02-10T06:13:13.118Z,90.64
2018-02-10T06:14:13.079Z,90.64
2018-02-10T06:15:13.049Z,90.26
2018-02-10T06:16:13.024Z,91.30
2018-02-10T06:17:12.994Z,91.39
2018-02-10T06:18:12.958Z,91.96
2018-02-10T06:19:12.990Z,91.96
2018-02-10T06:20:12.898Z,92.05
2018-02-10T06:21:12.876Z,92.05
2018-02-10T06:22:12.840Z,91.96
2018-02-10T06:23:12.818Z,91.96
2018-02-10T06:24:12.788Z,92.24
2018-02-10T06:25:12.748Z,91.77
2018-02-10T06:26:12.721Z,92.14
2018-02-10T06:27:12.687Z,91.67
2018-02-10T06:28:12.658Z,92.33
2018-02-10T06:29:12.681Z,92.76
2018-02-10T06:30:12.600Z,92.76
2018-02-10T06:31:12.567Z,92.76
2018-02-10T06:32:12.545Z,93.23
2018-02-10T06:33:12.564Z,93.23
2018-02-10T06:34:12.480Z,93.13
2018-02-10T06:35:12.448Z,93.61
2018-02-10T06:36:12.417Z,93.13
2018-02-10T06:37:12.388Z,93.51
2018-02-10T06:38:12.356Z,93.80
2018-02-10T06:39:12.341Z,93.61
2018-02-10T06:40:12.305Z,93.80
2018-02-10T06:41:12.267Z,93.32
2018-02-10T06:42:12.237Z,93.32
2018-02-10T06:43:12.204Z,93.32
2018-02-10T06:44:12.175Z,93.04
2018-02-10T06:45:12.142Z,93.42
2018-02-10T06:46:12.121Z,93.32
2018-02-10T06:47:12.089Z,93.04
2018-02-10T06:48:12.055Z,92.47
2018-02-10T06:49:12.027Z,92.10
2018-02-10T06:50:11.994Z,91.16
2018-02-10T06:51:11.965Z,91.25
2018-02-10T06:52:11.932Z,90.78
2018-02-10T06:53:11.902Z,91.35
2018-02-10T06:54:11.873Z,91.53
2018-02-10T06:55:11.843Z,91.44
2018-02-10T06:56:11.876Z,91.16
2018-02-10T06:57:11.788Z,91.82
2018-02-10T06:58:11.882Z,91.44
2018-02-10T07:00:11.695Z,90.78
2018-02-10T07:01:11.661Z,90.41
2018-02-10T07:02:11.634Z,90.41
2018-02-10T07:03:11.611Z,90.78
2018-02-10T07:04:11.576Z,90.59
2018-02-10T07:05:11.542Z,90.59
2018-02-10T07:06:11.516Z,90.03
2018-02-10T07:07:11.488Z,89.93
2018-02-10T07:08:11.452Z,89.56
2018-02-10T07:09:11.430Z,89.18
2018-02-10T07:10:11.396Z,89.18
2018-02-10T07:11:11.365Z,89.46
2018-02-10T07:12:11.336Z,89.93
2018-02-10T07:13:11.352Z,89.84
2018-02-10T07:14:11.283Z,89.74
2018-02-10T07:15:11.278Z,89.65
2018-02-10T07:16:11.231Z,89.08
2018-02-10T07:17:11.190Z,88.99
2018-02-10T07:18:11.154Z,88.61
2018-02-10T07:19:11.190Z,88.33
2018-02-10T07:20:11.094Z,88.71
2018-02-10T07:22:11.044Z,87.86
2018-02-10T07:23:11.014Z,87.67
2018-02-10T07:24:10.980Z,87.95
2018-02-10T07:25:10.947Z,88.33
2018-02-10T07:26:11.023Z,88.42
2018-02-10T07:28:10.984Z,88.23
2018-02-10T07:29:10.827Z,88.23
2018-02-10T07:30:10.800Z,87.76
2018-02-10T07:31:10.773Z,87.71
2018-02-10T07:32:10.738Z,87.57
2018-02-10T07:33:10.761Z,87.43
2018-02-10T07:34:10.684Z,86.77
2018-02-10T07:35:10.650Z,86.30
2018-02-10T07:36:10.620Z,86.02
2018-02-10T07:37:10.607Z,85.73
2018-02-10T07:38:10.563Z,85.45
2018-02-10T07:39:10.539Z,85.36
2018-02-10T07:40:10.505Z,85.92
2018-02-10T07:41:10.479Z,85.26
2018-02-10T07:42:10.448Z,85.07
2018-02-10T07:43:10.417Z,85.07
2018-02-10T07:44:10.450Z,84.51
2018-02-10T07:45:10.373Z,85.17
2018-02-10T07:46:10.334Z,84.60
2018-02-10T07:47:10.305Z,83.84
2018-02-10T07:48:10.276Z,83.89
2018-02-10T07:49:10.300Z,84.36
2018-02-10T07:50:10.226Z,83.51
2018-02-10T07:51:10.193Z,82.89
2018-02-10T07:52:10.166Z,82.32
2018-02-10T07:53:10.142Z,80.34
2018-02-10T07:54:10.106Z,79.59
2018-02-10T07:55:10.075Z,79.40
2018-02-10T07:56:10.051Z,77.61
2018-02-10T07:57:10.027Z,77.70
2018-02-10T07:58:09.998Z,78.40
2018-02-10T07:59:09.969Z,77.83
2018-02-10T08:00:09.999Z,76.51
2018-02-10T08:01:09.908Z,76.14
2018-02-10T08:02:09.885Z,75.28
2018-02-10T08:03:09.864Z,75.28
2018-02-10T08:04:09.831Z,74.62
2018-02-10T08:05:09.808Z,73.96
2018-02-10T08:06:09.780Z,73.90
2018-02-10T08:07:09.746Z,74.09
2018-02-10T08:08:09.773Z,73.33
2018-02-10T08:09:09.710Z,73.43
2018-02-10T08:10:09.667Z,74.09
2018-02-10T08:11:09.641Z,74.38
2018-02-10T08:12:09.651Z,74.19
2018-02-10T08:13:09.587Z,73.33
2018-02-10T08:14:09.563Z,73.05
2018-02-10T08:15:09.577Z,72.67
2018-02-10T08:16:09.521Z,73.24
2018-02-10T08:17:09.490Z,73.24
2018-02-10T08:18:09.463Z,74.38
2018-02-10T08:19:09.443Z,74.57
2018-02-10T08:20:09.412Z,74.47
2018-02-10T08:21:09.384Z,74.95
2018-02-10T08:22:09.364Z,74.79
2018-02-10T08:23:09.343Z,74.22
2018-02-10T08:24:09.334Z,73.47
2018-02-10T08:25:09.289Z,72.62
2018-02-10T08:26:09.261Z,71.67
2018-02-10T08:27:09.237Z,71.61
2018-02-10T08:28:09.265Z,70.48
2018-02-10T08:29:09.192Z,69.72
2018-02-10T08:30:09.173Z,69.25
2018-02-10T08:31:09.143Z,68.02
2018-02-10T08:32:09.118Z,67.86
2018-02-10T08:33:09.105Z,68.33
2018-02-10T08:34:09.231Z,68.24
2018-02-10T08:35:09.049Z,67.49
2018-02-10T08:36:09.036Z,66.47
2018-02-10T08:37:09.044Z,66.09
2018-02-10T08:38:08.981Z,66.00
2018-02-10T08:39:08.955Z,65.72
2018-02-10T08:40:08.936Z,64.68
2018-02-10T08:41:08.908Z,64.20
2018-02-10T08:42:08.900Z,64.11
2018-02-10T08:43:08.878Z,63.92
2018-02-10T08:44:08.843Z,64.30
2018-02-10T08:45:09.280Z,64.71
2018-02-10T08:46:08.827Z,64.68
2018-02-10T08:47:09.003Z,64.58
2018-02-10T08:48:08.767Z,66.25
2018-02-10T08:49:09.602Z,66.98
2018-02-10T08:50:12.732Z,69.06
2018-02-10T08:51:08.857Z,71.33
2018-02-10T08:52:08.701Z,72.09
2018-02-10T08:53:08.659Z,71.33
2018-02-10T08:54:08.631Z,70.98
2018-02-10T08:55:08.663Z,71.33
2018-02-10T08:56:08.591Z,70.32
2018-02-10T08:57:09.142Z,70.04
2018-02-10T08:58:08.552Z,68.46
2018-02-10T08:59:08.592Z,67.61
2018-02-10T09:00:09.830Z,66.19
2018-02-10T09:01:08.573Z,66.57
2018-02-10T09:02:08.727Z,66.95
2018-02-10T09:03:08.866Z,66.57
2018-02-10T09:04:08.733Z,67.30
2018-02-10T09:05:08.501Z,68.15
2018-02-10T09:06:08.384Z,68.81
2018-02-10T09:07:08.369Z,69.66
2018-02-10T09:08:08.346Z,70.32
2018-02-10T09:09:08.320Z,70.32
2018-02-10T09:10:08.301Z,70.42
2018-02-10T09:11:08.284Z,70.14
2018-02-10T09:12:08.780Z,70.42
2018-02-10T09:13:08.241Z,71.14
2018-02-10T09:14:08.220Z,72.28
2018-02-10T09:15:08.198Z,73.32
2018-02-10T09:16:08.178Z,74.45
2018-02-10T09:17:08.156Z,73.98
2018-02-10T09:18:08.145Z,73.69
2018-02-10T09:19:08.116Z,73.45
2018-02-10T09:20:08.336Z,72.78
2018-02-10T09:21:08.075Z,71.74
2018-02-10T09:22:08.057Z,70.45
2018-02-10T09:23:08.061Z,68.46
2018-02-10T09:24:08.251Z,68.02
2018-02-10T09:25:08.019Z,65.97
2018-02-10T09:26:07.979Z,65.47
2018-02-10T09:27:08.007Z,64.46
2018-02-10T09:28:07.936Z,63.26
2018-02-10T09:29:08.015Z,62.31
2018-02-10T09:30:07.901Z,61.27
2018-02-10T09:31:07.872Z,60.60
2018-02-10T09:32:07.861Z,60.25
2018-02-10T09:33:07.832Z,60.06
2018-02-10T09:34:07.820Z,59.84
2018-02-10T09:35:07.796Z,59.66
2018-02-10T09:36:07.785Z,60.13
2018-02-10T09:37:07.756Z,59.97
2018-02-10T09:38:07.795Z,59.59
2018-02-10T09:39:07.725Z,59.88
2018-02-10T09:40:07.703Z,59.68
2018-02-10T09:41:07.694Z,59.11
2018-02-10T09:42:07.668Z,59.59
2018-02-10T09:43:07.669Z,59.59
2018-02-10T09:44:07.631Z,60.79
2018-02-10T09:45:07.613Z,61.36
2018-02-10T09:46:07.704Z,62.88
2018-02-10T09:47:07.593Z,63.42
2018-02-10T09:48:07.622Z,63.54
2018-02-10T09:49:07.549Z,63.73
2018-02-10T09:50:07.531Z,64.11
2018-02-10T09:52:07.870Z,62.34
2018-02-10T09:53:07.475Z,61.49
2018-02-10T09:54:07.461Z,61.08
2018-02-10T09:55:07.440Z,61.39
2018-02-10T09:56:07.432Z,61.30
2018-02-10T09:57:07.417Z,60.57
2018-02-10T09:58:07.391Z,59.68
2018-02-10T09:59:07.384Z,59.43
2018-02-10T10:00:07.363Z,59.21
2018-02-10T10:01:07.339Z,59.88
2018-02-10T10:02:08.070Z,60.44
2018-02-10T10:03:07.606Z,60.92
2018-02-10T10:04:07.492Z,60.53
2018-02-10T10:06:07.333Z,60.79
2018-02-10T10:07:07.267Z,61.01
2018-02-10T10:08:07.246Z,60.98
2018-02-10T10:09:07.234Z,60.92
2018-02-10T10:10:07.219Z,60.10
2018-02-10T10:11:07.233Z,58.86
2018-02-10T10:12:07.159Z,58.95
2018-02-10T10:13:07.212Z,57.84
2018-02-10T10:15:07.418Z,55.76
2018-02-10T10:16:07.097Z,55.09
2018-02-10T10:17:07.084Z,54.99
2018-02-10T10:18:07.071Z,55.76
2018-02-10T10:19:07.052Z,56.04
2018-02-10T10:20:07.040Z,56.68
2018-02-10T10:21:07.020Z,56.29
2018-02-10T10:22:07.004Z,57.34
2018-02-10T10:24:06.982Z,55.91
2018-02-10T10:25:06.959Z,56.49
2018-02-10T10:26:06.943Z,56.32
2018-02-10T10:27:06.932Z,56.29
2018-02-10T10:28:06.949Z,56.51
2018-02-10T10:29:06.913Z,55.18
2018-02-10T10:30:07.041Z,54.99
2018-02-10T10:31:06.875Z,55.11
2018-02-10T10:32:06.905Z,54.26
2018-02-10T10:33:06.840Z,53.22
2018-02-10T10:34:06.828Z,52.17
2018-02-10T10:35:07.205Z,52.10
2018-02-10T10:36:07.141Z,51.91
2018-02-10T10:39:06.766Z,54.17
2018-02-10T10:40:06.751Z,52.86
2018-02-10T10:41:06.735Z,52.29
2018-02-10T10:42:06.756Z,51.06
2018-02-10T10:43:06.701Z,49.82
2018-02-10T10:44:06.686Z,49.65
2018-02-10T10:45:06.692Z,48.54
2018-02-10T10:46:06.859Z,47.97
2018-02-10T10:47:06.646Z,48.46
2018-02-10T10:48:06.642Z,50.37
2018-02-10T10:49:06.691Z,50.29
2018-02-10T10:50:08.139Z,49.27
2018-02-10T10:51:06.602Z,48.58
2018-02-10T10:52:07.814Z,49.06
2018-02-10T10:53:08.030Z,48.39
2018-02-10T10:54:06.609Z,48.96
2018-02-10T10:56:06.825Z,49.60
2018-02-10T10:57:06.516Z,49.79
2018-02-10T10:58:06.499Z,48.85
2018-02-10T11:00:06.480Z,47.89
2018-02-10T11:01:06.463Z,48.49
2018-02-10T11:02:06.446Z,47.73
2018-02-10T11:03:06.440Z,48.85
2018-02-10T11:04:06.419Z,49.98
2018-02-10T11:05:06.410Z,50.18
2018-02-10T11:06:06.405Z,49.82
2018-02-10T11:08:06.677Z,48.42
2018-02-10T11:09:06.358Z,47.75
2018-02-10T11:10:06.351Z,46.92
2018-02-10T11:11:06.346Z,46.15
2018-02-10T11:12:06.324Z,46.44
2018-02-10T11:13:06.581Z,46.44
2018-02-10T11:14:06.291Z,45.59
2018-02-10T11:15:06.351Z,45.97
2018-02-10T11:16:07.216Z,45.75
2018-02-10T11:17:06.255Z,46.63
2018-02-10T11:18:06.250Z,45.70
2018-02-10T11:19:06.228Z,45.30
2018-02-10T11:20:06.216Z,46.70
2018-02-10T11:21:06.206Z,46.42
2018-02-10T11:22:06.205Z,46.99
2018-02-10T11:23:06.178Z,46.70
2018-02-10T11:24:06.289Z,46.73
2018-02-10T11:25:06.221Z,46.51
2018-02-10T11:26:06.147Z,47.66
2018-02-10T11:27:06.481Z,48.58
2018-02-10T11:28:06.168Z,47.97
2018-02-10T11:29:06.119Z,47.02
2018-02-10T11:30:06.192Z,46.54
2018-02-10T11:31:06.149Z,46.51
2018-02-10T11:32:06.090Z,48.23
2018-02-10T11:33:06.059Z,48.13
2018-02-10T11:34:06.055Z,47.28
2018-02-10T11:35:06.059Z,47.66
2018-02-10T11:36:06.076Z,47.85
2018-02-10T11:37:06.004Z,47.87
2018-02-10T11:38:05.996Z,47.30
2018-02-10T11:39:05.982Z,46.63
2018-02-10T11:40:06.097Z,46.70
2018-02-10T11:42:06.109Z,45.51
2018-02-10T11:43:06.051Z,44.27
2018-02-10T11:44:05.986Z,43.71
2018-02-10T11:46:06.036Z,43.25
2018-02-10T11:47:05.943Z,43.25
2018-02-10T11:48:05.877Z,43.06
2018-02-10T11:49:05.895Z,42.80
2018-02-10T11:50:05.866Z,42.03
2018-02-10T11:51:05.844Z,41.67
2018-02-10T11:52:06.138Z,41.17
2018-02-10T11:53:05.901Z,40.99
2018-02-10T11:54:05.940Z,41.84
2018-02-10T11:55:07.437Z,41.84
2018-02-10T11:56:05.835Z,41.75
2018-02-10T11:57:05.779Z,42.40
2018-02-10T11:58:05.907Z,43.87
2018-02-10T11:59:05.757Z,45.78
2018-02-10T12:00:05.761Z,46.54
2018-02-10T12:02:05.720Z,48.68
2018-02-10T12:03:05.706Z,48.90
2018-02-10T12:04:05.700Z,47.25
2018-02-10T12:05:05.685Z,49.87
2018-02-10T12:06:05.703Z,51.41
2018-02-10T12:07:05.661Z,51.12
2018-02-10T12:08:05.857Z,51.31
2018-02-10T12:09:05.733Z,51.41
2018-02-10T12:11:05.633Z,52.43
2018-02-10T12:12:05.657Z,53.83
2018-02-10T12:13:05.597Z,53.00
2018-02-10T12:14:05.583Z,52.43
2018-02-10T12:15:05.608Z,52.87
2018-02-10T12:16:07.312Z,54.02
2018-02-10T12:17:05.544Z,55.54
2018-02-10T12:18:05.550Z,56.65
2018-02-10T12:19:05.604Z,57.88
2018-02-10T12:23:05.477Z,59.46
2018-02-10T12:24:05.574Z,59.66
2018-02-10T12:25:05.530Z,60.22
2018-02-10T12:26:05.495Z,61.36
2018-02-10T12:27:05.420Z,61.55
2018-02-10T12:28:05.507Z,61.83
2018-02-10T12:29:05.519Z,61.99
2018-02-10T12:30:05.395Z,62.69
2018-02-10T12:31:05.351Z,62.85
2018-02-10T12:32:05.346Z,62.94
2018-02-10T12:33:05.473Z,62.85
2018-02-10T12:34:05.312Z,62.75
2018-02-10T12:35:05.290Z,62.85
2018-02-10T12:36:05.273Z,63.51
2018-02-10T12:37:05.262Z,63.51
2018-02-10T12:38:05.332Z,63.42
2018-02-10T12:39:05.312Z,63.42
2018-02-10T12:40:05.210Z,63.32
2018-02-10T12:41:05.248Z,63.32
2018-02-10T12:42:05.182Z,63.98
2018-02-10T12:43:05.258Z,64.36
2018-02-10T12:44:05.244Z,64.65
2018-02-10T12:45:05.135Z,64.36
2018-02-10T12:46:05.111Z,64.36
2018-02-10T12:47:05.117Z,64.55
2018-02-10T12:48:05.075Z,64.65
2018-02-10T12:49:05.069Z,65.69
2018-02-10T12:50:05.045Z,65.50
2018-02-10T12:51:05.165Z,65.88
2018-02-10T12:52:05.088Z,65.50
2018-02-10T12:53:04.993Z,65.88
2018-02-10T12:54:04.977Z,65.88
2018-02-10T12:55:04.966Z,65.97
2018-02-10T12:56:04.945Z,65.69
2018-02-10T12:57:05.032Z,65.69
2018-02-10T12:58:04.912Z,65.50
2018-02-10T12:59:04.978Z,65.78
2018-02-10T13:00:05.048Z,66.16
2018-02-10T13:02:05.141Z,65.97
2018-02-10T13:03:04.812Z,65.97
2018-02-10T13:04:04.806Z,65.88
2018-02-10T13:05:04.789Z,66.26
2018-02-10T13:06:04.763Z,66.26
2018-02-10T13:07:04.831Z,66.35
2018-02-10T13:08:04.724Z,65.97
2018-02-10T13:09:04.797Z,65.88
2018-02-10T13:11:04.681Z,66.64
2018-02-10T13:12:04.649Z,66.16
2018-02-10T13:13:04.772Z,66.16
2018-02-10T13:14:04.694Z,66.16
2018-02-10T13:15:04.708Z,65.97
2018-02-10T13:16:04.753Z,65.97
2018-02-10T13:17:04.559Z,66.54
2018-02-10T13:18:04.627Z,66.83
2018-02-10T13:19:04.614Z,67.68
2018-02-10T13:20:04.801Z,67.40
2018-02-10T13:21:04.492Z,67.77
2018-02-10T13:22:04.559Z,68.44